createdAt,value
2022-08-09T00:00:04.574Z,16.40
2022-08-09T00:02:34.125Z,16.20
2022-08-09T00:06:15.570Z,16.20
2022-08-09T00:07:48.578Z,16.10
2022-08-09T00:10:21.532Z,16.00
2022-08-09T00:12:52.912Z,15.90
2022-08-09T00:15:26.515Z,15.90
2022-08-09T00:18:11.844Z,15.90
2022-08-09T00:20:42.318Z,15.80
2022-08-09T00:23:54.835Z,15.70
2022-08-09T00:26:08.654Z,15.70
2022-08-09T00:28:38.506Z,15.60
2022-08-09T00:31:30.509Z,15.60
2022-08-09T00:33:53.918Z,15.50
2022-08-09T00:36:21.157Z,15.50
2022-08-09T00:38:50.818Z,15.50
2022-08-09T00:44:10.391Z,15.50
2022-08-09T00:44:13.332Z,15.40
2022-08-09T00:46:57.467Z,15.40
2022-08-09T00:49:31.333Z,15.40
2022-08-09T00:52:02.034Z,15.30
2022-08-09T00:54:36.221Z,15.30
2022-08-09T00:57:10.455Z,15.30
2022-08-09T00:59:46.220Z,15.20
2022-08-09T01:02:22.171Z,15.20
2022-08-09T01:05:03.424Z,15.10
2022-08-09T01:08:01.181Z,15.10
2022-08-09T01:10:37.102Z,15.00
2022-08-09T01:13:16.998Z,15.00
2022-08-09T01:15:52.076Z,14.90
2022-08-09T01:18:29.677Z,14.90
2022-08-09T01:21:41.243Z,14.90
2022-08-09T01:24:18.013Z,14.80
2022-08-09T01:27:11.055Z,14.90
2022-08-09T01:29:56.377Z,14.90
2022-08-09T01:32:33.768Z,14.90
2022-08-09T01:35:28.391Z,14.80
2022-08-09T01:38:10.095Z,14.70
2022-08-09T01:40:52.901Z,14.70
2022-08-09T01:43:41.901Z,14.70
2022-08-09T01:46:25.170Z,14.70
2022-08-09T01:49:00.036Z,14.60
2022-08-09T01:51:32.129Z,14.50
2022-08-09T01:54:01.900Z,14.60
2022-08-09T01:56:30.650Z,14.50
2022-08-09T01:59:01.469Z,14.50
2022-08-09T02:01:58.367Z,14.40
2022-08-09T02:04:18.888Z,14.40
2022-08-09T02:07:05.338Z,14.30
2022-08-09T02:09:41.895Z,14.30
2022-08-09T02:12:13.411Z,14.30
2022-08-09T02:14:51.819Z,14.30
2022-08-09T02:18:09.608Z,14.30
2022-08-09T02:20:08.914Z,14.30
2022-08-09T02:22:56.583Z,14.20
2022-08-09T02:25:28.693Z,14.20
2022-08-09T02:28:04.139Z,14.20
2022-08-09T02:30:41.504Z,14.20
2022-08-09T02:33:14.170Z,14.20
2022-08-09T02:36:03.094Z,14.20
2022-08-09T02:38:34.919Z,14.20
2022-08-09T02:41:10.282Z,14.10
2022-08-09T02:43:53.982Z,14.10
2022-08-09T02:46:25.726Z,14.10
2022-08-09T02:48:58.798Z,14.10
2022-08-09T02:51:27.820Z,14.20
2022-08-09T02:54:02.924Z,14.10
2022-08-09T02:56:34.654Z,14.10
2022-08-09T02:59:05.646Z,14.10
2022-08-09T03:01:43.071Z,14.10
2022-08-09T03:04:26.361Z,14.10
2022-08-09T03:06:59.837Z,14.20
2022-08-09T03:09:42.768Z,14.20
2022-08-09T03:12:13.450Z,14.20
2022-08-09T03:14:42.183Z,14.30
2022-08-09T03:17:20.293Z,14.40
2022-08-09T03:19:57.723Z,14.40
2022-08-09T03:22:30.021Z,14.40
2022-08-09T03:25:06.174Z,14.50
2022-08-09T03:27:51.896Z,14.60
2022-08-09T03:30:30.004Z,14.50
2022-08-09T03:33:12.947Z,14.50
2022-08-09T03:36:14.056Z,14.40
2022-08-09T03:38:31.243Z,14.30
2022-08-09T03:40:58.141Z,14.30
2022-08-09T03:43:32.167Z,14.30
2022-08-09T03:46:05.282Z,14.40
2022-08-09T03:48:57.585Z,14.30
2022-08-09T03:51:56.537Z,14.40
2022-08-09T03:54:17.279Z,14.30
2022-08-09T03:56:46.713Z,14.30
2022-08-09T03:59:21.038Z,14.30
2022-08-09T04:01:59.143Z,14.20
2022-08-09T04:04:32.565Z,14.10
2022-08-09T04:07:04.524Z,14.00
2022-08-09T04:09:48.214Z,13.90
2022-08-09T04:12:32.050Z,13.80
2022-08-09T04:15:01.464Z,13.80
2022-08-09T04:17:29.837Z,13.80
2022-08-09T04:19:56.768Z,13.70
2022-08-09T04:22:23.678Z,13.70
2022-08-09T04:24:50.634Z,13.70
2022-08-09T04:27:22.062Z,13.70
2022-08-09T04:29:49.716Z,13.70
2022-08-09T04:32:17.079Z,13.80
2022-08-09T04:34:58.005Z,13.90
2022-08-09T04:37:24.762Z,13.90
2022-08-09T04:40:11.837Z,13.90
2022-08-09T04:42:48.463Z,13.80
2022-08-09T04:45:16.452Z,13.80
2022-08-09T04:48:00.300Z,13.90
2022-08-09T04:50:32.003Z,13.90
2022-08-09T04:53:11.722Z,14.00
2022-08-09T04:55:57.921Z,13.90
2022-08-09T04:58:31.635Z,14.00
2022-08-09T05:01:00.360Z,14.10
2022-08-09T05:03:40.798Z,14.10
2022-08-09T05:06:25.843Z,14.10
2022-08-09T05:09:00.754Z,14.20
2022-08-09T05:11:35.614Z,14.30
2022-08-09T05:16:33.530Z,14.40
2022-08-09T05:19:10.538Z,14.70
2022-08-09T05:21:47.388Z,14.90
2022-08-09T05:24:22.150Z,15.00
2022-08-09T05:26:51.683Z,15.10
2022-08-09T05:29:22.709Z,15.30
2022-08-09T05:31:57.566Z,15.50
2022-08-09T05:34:31.456Z,15.60
2022-08-09T05:37:06.887Z,15.80
2022-08-09T05:39:42.617Z,15.90
2022-08-09T05:42:17.677Z,16.10
2022-08-09T05:44:50.685Z,16.20
2022-08-09T05:47:19.116Z,16.40
2022-08-09T05:50:26.088Z,16.50
2022-08-09T05:52:32.704Z,16.70
2022-08-09T05:55:03.083Z,16.80
2022-08-09T05:57:55.411Z,17.00
2022-08-09T06:00:28.807Z,17.10
2022-08-09T06:03:01.247Z,17.20
2022-08-09T06:05:31.095Z,17.30
2022-08-09T06:08:19.666Z,17.40
2022-08-09T06:10:52.637Z,17.60
2022-08-09T06:13:20.676Z,17.70
2022-08-09T06:18:20.406Z,17.80
2022-08-09T12:15:07.642Z,17.90
2022-08-09T12:17:44.515Z,26.40
2022-08-09T12:20:22.427Z,26.30
2022-08-09T12:22:57.489Z,26.30
2022-08-09T12:25:32.055Z,26.10
2022-08-09T12:28:58.990Z,26.20
2022-08-09T12:30:59.461Z,26.30
2022-08-09T12:33:35.331Z,26.30
2022-08-09T12:36:27.478Z,26.40
2022-08-09T12:38:59.874Z,26.40
2022-08-09T12:41:38.182Z,26.60
2022-08-09T12:44:09.742Z,26.60
2022-08-09T12:46:39.523Z,26.60
2022-08-09T12:49:08.570Z,26.60
2022-08-09T12:52:01.315Z,26.60
2022-08-09T12:54:22.129Z,26.60
2022-08-09T12:56:54.483Z,26.80
2022-08-09T12:59:24.618Z,27.00
2022-08-09T13:02:09.420Z,27.20
2022-08-09T13:04:38.813Z,27.30
2022-08-09T13:07:13.342Z,27.30
2022-08-09T13:09:43.302Z,27.30
2022-08-09T13:12:19.961Z,27.30
2022-08-09T13:14:53.309Z,27.10
2022-08-09T13:17:44.056Z,27.20
2022-08-09T13:20:14.086Z,27.10
2022-08-09T13:23:01.217Z,27.10
2022-08-09T13:25:54.379Z,27.10
2022-08-09T13:28:34.588Z,27.30
2022-08-09T13:32:17.842Z,27.40
2022-08-09T13:33:59.058Z,27.50
2022-08-09T13:36:40.558Z,27.50
2022-08-09T13:39:34.385Z,27.50
2022-08-09T13:42:10.958Z,27.60
2022-08-09T13:44:42.184Z,27.50
2022-08-09T13:47:33.751Z,27.70
2022-08-09T13:50:12.545Z,27.90
2022-08-09T13:52:40.388Z,27.60
2022-08-09T13:55:13.636Z,27.70
2022-08-09T13:57:47.347Z,27.80
2022-08-09T14:00:23.066Z,27.80
2022-08-09T14:03:04.650Z,27.90
2022-08-09T14:05:56.421Z,28.00
2022-08-09T14:08:31.438Z,28.10
2022-08-09T14:11:00.172Z,28.20
2022-08-09T14:14:22.255Z,28.40
2022-08-09T14:16:17.572Z,28.50
2022-08-09T14:18:49.300Z,28.50
2022-08-09T14:21:22.232Z,28.80
2022-08-09T14:23:54.267Z,28.80
2022-08-09T14:26:25.329Z,29.00
2022-08-09T14:28:57.587Z,29.30
2022-08-09T14:31:35.800Z,29.30
2022-08-09T14:34:11.489Z,29.50
2022-08-09T14:36:42.701Z,30.00
2022-08-09T14:39:10.336Z,30.20
2022-08-09T14:41:40.296Z,30.80
2022-08-09T14:44:11.140Z,31.10
2022-08-09T14:47:01.074Z,31.60
2022-08-09T14:49:26.147Z,32.00
2022-08-09T14:51:58.864Z,32.70
2022-08-09T15:14:38.200Z,32.70
2022-08-09T15:17:07.563Z,34.10
2022-08-09T15:19:36.672Z,34.30
2022-08-09T15:22:03.755Z,33.80
2022-08-09T15:24:30.622Z,33.90
2022-08-09T15:26:57.737Z,34.10
2022-08-09T15:30:55.611Z,34.20
2022-08-09T15:32:28.582Z,34.10
2022-08-09T15:35:00.568Z,33.60
2022-08-09T15:37:56.569Z,34.00
2022-08-09T15:40:31.962Z,33.90
2022-08-09T15:42:59.593Z,32.90
2022-08-09T15:45:29.889Z,32.90
2022-08-09T15:48:05.220Z,33.20
2022-08-09T15:50:39.006Z,33.30
2022-08-09T15:53:17.778Z,32.90
2022-08-09T15:56:11.119Z,32.80
2022-08-09T15:58:33.298Z,32.60
2022-08-09T16:01:01.297Z,32.30
2022-08-09T16:03:37.903Z,31.90
2022-08-09T16:06:06.156Z,32.50
2022-08-09T16:08:33.537Z,32.30
2022-08-09T16:11:02.463Z,32.10
2022-08-09T16:14:03.663Z,32.20
2022-08-09T16:16:18.967Z,32.40
2022-08-09T16:18:47.190Z,32.80
2022-08-09T16:21:17.273Z,32.50
2022-08-09T16:23:55.058Z,32.30
2022-08-09T16:26:34.778Z,32.70
2022-08-09T16:29:12.436Z,32.70
2022-08-09T16:32:18.617Z,32.20
2022-08-09T16:34:28.840Z,32.00
2022-08-09T16:36:56.368Z,31.80
2022-08-09T16:39:25.882Z,31.80
2022-08-09T16:42:04.133Z,32.00
2022-08-09T16:44:32.195Z,31.40
2022-08-09T16:47:04.232Z,31.50
2022-08-09T16:50:28.307Z,31.50
2022-08-09T16:52:33.075Z,31.40
2022-08-09T16:54:59.858Z,31.50
2022-08-09T16:57:26.602Z,31.50
2022-08-09T17:00:14.041Z,31.40
2022-08-09T17:02:42.643Z,31.00
2022-08-09T17:05:14.001Z,30.90
2022-08-09T17:08:43.077Z,30.70
2022-08-09T17:10:33.905Z,30.70
2022-08-09T17:13:01.389Z,30.50
2022-08-09T17:15:59.322Z,30.60
2022-08-09T17:18:15.359Z,30.80
2022-08-09T17:20:49.199Z,30.90
2022-08-09T17:23:20.436Z,30.50
2022-08-09T17:25:53.075Z,30.00
2022-08-09T17:28:19.911Z,29.80
2022-08-09T17:30:47.555Z,29.80
2022-08-09T17:33:21.921Z,29.90
2022-08-09T17:35:50.044Z,29.80
2022-08-09T17:38:32.475Z,29.80
2022-08-09T17:41:04.237Z,29.70
2022-08-09T17:43:34.534Z,29.60
2022-08-09T17:46:06.096Z,29.30
2022-08-09T17:48:40.266Z,29.30
2022-08-09T17:51:17.865Z,29.30
2022-08-09T17:53:52.407Z,29.10
2022-08-09T17:56:27.386Z,29.10
2022-08-09T17:59:01.239Z,28.80
2022-08-09T18:01:58.093Z,28.10
2022-08-09T18:04:18.816Z,27.40
2022-08-09T18:06:54.151Z,26.80
2022-08-09T18:09:21.375Z,26.30
2022-08-09T18:12:14.787Z,26.00
2022-08-09T18:14:35.680Z,25.70
2022-08-09T18:17:02.409Z,25.40
2022-08-09T18:20:59.791Z,25.20
2022-08-09T18:22:16.994Z,25.00
2022-08-09T18:24:46.382Z,24.90
2022-08-09T18:27:33.693Z,24.70
2022-08-09T18:30:35.289Z,24.50
2022-08-09T18:32:54.607Z,24.30
2022-08-09T18:36:00.019Z,24.10
2022-08-09T18:38:09.987Z,24.00
2022-08-09T18:40:38.643Z,23.80
2022-08-09T18:43:05.365Z,23.70
2022-08-09T18:46:50.910Z,23.60
2022-08-09T18:48:19.103Z,23.50
2022-08-09T18:50:47.045Z,23.40
2022-08-09T18:53:16.560Z,23.20
2022-08-09T18:55:56.680Z,23.10
2022-08-09T18:58:32.429Z,23.00
2022-08-09T19:01:00.577Z,22.90
2022-08-09T19:03:28.741Z,22.90
2022-08-09T19:06:03.231Z,22.70
2022-08-09T19:08:31.190Z,22.70
2022-08-09T19:10:57.842Z,22.50
2022-08-09T19:13:38.768Z,22.50
2022-08-09T19:16:13.028Z,22.40
2022-08-09T19:18:44.223Z,22.40
2022-08-09T19:21:12.530Z,22.20
2022-08-09T19:24:32.300Z,22.20
2022-08-09T19:26:32.601Z,22.10
2022-08-09T19:29:15.116Z,22.10
2022-08-09T19:31:46.552Z,22.00
2022-08-09T19:34:21.464Z,21.90
2022-08-09T19:36:53.754Z,21.90
2022-08-09T19:39:42.885Z,21.80
2022-08-09T19:42:09.119Z,21.80
2022-08-09T19:44:41.634Z,21.70
2022-08-09T19:47:08.538Z,21.80
2022-08-09T19:50:09.906Z,21.60
2022-08-09T19:52:26.437Z,21.60
2022-08-09T19:54:53.136Z,21.60
2022-08-09T19:57:25.875Z,21.50
2022-08-09T20:00:05.786Z,21.50
2022-08-09T20:04:16.692Z,21.40
2022-08-09T20:05:21.530Z,21.40
2022-08-09T20:07:59.470Z,21.40
2022-08-09T20:10:36.888Z,21.40
2022-08-09T20:13:06.469Z,21.40
2022-08-09T20:16:33.030Z,21.40
2022-08-09T20:18:22.496Z,21.40
2022-08-09T20:20:51.335Z,21.30
2022-08-09T20:23:21.100Z,21.30
2022-08-09T20:25:52.118Z,21.20
2022-08-09T20:28:28.206Z,21.20
2022-08-09T20:31:04.543Z,21.20
2022-08-09T20:33:41.023Z,21.10
2022-08-09T20:36:11.384Z,21.10
2022-08-09T20:39:05.508Z,21.10
2022-08-09T20:41:34.823Z,21.10
2022-08-09T20:44:10.193Z,21.10
2022-08-09T20:46:43.020Z,21.10
2022-08-09T20:49:16.013Z,21.00
2022-08-09T20:51:44.175Z,21.00
2022-08-09T20:54:12.703Z,20.90
2022-08-09T20:56:46.797Z,20.90
2022-08-09T20:59:17.054Z,20.80
2022-08-09T21:01:50.547Z,20.80
2022-08-09T21:05:51.342Z,20.90
2022-08-09T21:07:10.900Z,20.80
2022-08-09T21:09:45.813Z,20.80
2022-08-09T21:12:21.913Z,20.80
2022-08-09T21:14:49.092Z,20.80
2022-08-09T21:18:21.069Z,20.70
2022-08-09T21:20:17.336Z,20.60
2022-08-09T21:22:52.493Z,20.60
2022-08-09T21:25:44.294Z,20.60
2022-08-09T21:28:33.383Z,20.50
2022-08-09T21:31:13.627Z,20.50
2022-08-09T21:33:45.867Z,20.40
2022-08-09T21:36:18.235Z,20.40
2022-08-09T21:38:50.909Z,20.30
2022-08-09T21:42:00.165Z,20.30
2022-08-09T21:44:10.433Z,20.20
2022-08-09T21:46:37.100Z,20.20
2022-08-09T21:49:03.939Z,20.10
2022-08-09T21:51:36.299Z,20.10
2022-08-09T21:54:10.310Z,20.00
2022-08-09T21:56:53.951Z,19.90
2022-08-09T21:59:23.398Z,19.90
2022-08-09T22:01:59.403Z,19.80
2022-08-09T22:04:57.044Z,19.70
2022-08-09T22:07:35.522Z,19.70
2022-08-09T22:10:05.971Z,19.60
2022-08-09T22:12:33.574Z,19.60
2022-08-09T22:15:00.940Z,19.50
2022-08-09T22:17:28.070Z,19.40
2022-08-09T22:20:00.745Z,19.40
2022-08-09T22:22:29.355Z,19.40
2022-08-09T22:26:08.247Z,19.30
2022-08-09T22:27:42.702Z,19.20
2022-08-09T22:30:10.456Z,19.10
2022-08-09T22:32:37.427Z,19.10
2022-08-09T22:35:06.586Z,19.00
2022-08-09T22:37:35.702Z,18.90
2022-08-09T22:40:08.926Z,18.80
2022-08-09T22:42:37.723Z,18.70
2022-08-09T22:48:13.942Z,18.70
2022-08-09T22:48:15.885Z,18.70
2022-08-09T22:50:39.716Z,18.60
2022-08-09T22:53:06.849Z,18.50
2022-08-09T22:56:07.140Z,18.50
2022-08-09T22:58:32.855Z,18.40
2022-08-09T23:01:02.510Z,18.30
2022-08-09T23:04:02.571Z,18.20
2022-08-09T23:06:34.986Z,18.20
2022-08-09T23:09:04.663Z,18.20
2022-08-09T23:11:31.328Z,18.20
2022-08-09T23:13:59.542Z,18.10
2022-08-09T23:16:26.218Z,18.10
2022-08-09T23:18:52.902Z,18.10
2022-08-09T23:21:24.500Z,18.10
2022-08-09T23:24:05.722Z,18.10
2022-08-09T23:26:34.799Z,18.10
2022-08-09T23:29:01.490Z,18.10
2022-08-09T23:31:28.197Z,18.00
2022-08-09T23:33:54.838Z,18.00
2022-08-09T23:36:21.571Z,18.10
2022-08-09T23:38:49.414Z,18.00
2022-08-09T23:41:28.670Z,18.00
2022-08-09T23:44:00.457Z,18.00
2022-08-09T23:46:28.496Z,18.00
2022-08-09T23:48:55.649Z,18.00
2022-08-09T23:51:22.606Z,18.00
2022-08-09T23:53:50.437Z,17.90
2022-08-09T23:56:52.143Z,18.00
2022-08-09T23:59:06.092Z,18.00
